Ducktown, Tennessee
Current Conditions -  °F | °C
As of 11:15 AM on Sunday 23 Nov 2014 (Local Time) from KMMI Reporting Station
Overcast Overcast  
Wind Chill: 55°   Ceiling: 1300
Heat Index: 55°   Visibility: 1.7mi
Dew Point: 52°   Wind: 6mph
Humidity: 88%   Direction: NA
Pressure: 29.93"   Gusts: NA
Location:  35.04°N, 84.38°W
Report Text: KMMI 231615Z AUTO VRB05KT 1 3/4SM SCT005 BKN013 OVC028 13/11 A2993 RMK
Loading
Personal Weather Stations






























Interactive Weather Map New forecast layout! Learn more

10-Day Weather Forecast

Advertisements
Track Severe Weather on mobile